Allenton, Missouri
Current Conditions -  °F | °C
As of 2:54 AM on Friday 31 Oct 2014 (Local Time) from KSUS Reporting Station
Few Clouds Few Clouds  
Wind Chill:   Ceiling: Unl
Heat Index:   Visibility: 10mi
Dew Point:   Wind: 6mph
Humidity: 93%   Direction: 320°NW
Pressure: 30.08"   Gusts: NA
Location:  38.5°N, 90.68°W
Report Text: KSUS 310754Z AUTO 32005KT 10SM FEW090 07/06 A3008 RMK AO2 SLP188 T00720061
Loading
Personal Weather Stations






























Interactive Weather Map
Tropical Storm Tracking
New forecast layout! Learn more

10-Day Weather Forecast

Advertisements
Track Severe Weather on mobile